Time,TemperatureF,DewpointF,PressureIn,WindDirection,WindDirectionDegrees,WindSpeedMPH,WindSpeedGustMPH,Humidity,HourlyPrecipIn,Conditions,Clouds,dailyrainin,SolarRadiationWatts/m^2,SoftwareType,DateUTC
2013-10-16 00:02:00,48.0,44.0,-100.00,NNE,33,0.0,11.0,87,0.00,,,-99.99,0.000000,,2013-10-16 07:02:00,
2013-10-16 00:42:00,48.0,45.0,-100.00,North,5,0.0,6.0,89,0.00,,,0.00,0.000000,,2013-10-16 07:42:00,
2013-10-16 00:53:00,48.0,45.0,-100.00,North,5,0.0,6.0,89,0.00,,,0.00,0.000000,,2013-10-16 07:53:00,
2013-10-16 01:02:00,48.0,45.0,-100.00,North,5,0.0,6.0,89,0.00,,,0.00,0.000000,,2013-10-16 08:02:00,
2013-10-16 01:42:00,47.0,44.0,-100.00,NNE,25,3.0,7.0,90,0.00,,,-99.99,0.000000,,2013-10-16 08:42:00,
2013-10-16 01:52:00,47.0,44.0,-100.00,NNE,25,3.0,7.0,90,0.00,,,-99.99,0.000000,,2013-10-16 08:52:00,
2013-10-16 02:02:00,47.0,44.0,-100.00,NNE,25,3.0,7.0,90,0.00,,,-99.99,0.000000,,2013-10-16 09:02:00,
2013-10-16 02:43:00,48.0,45.0,-100.00,North,352,0.0,8.0,89,0.00,,,0.00,0.000000,,2013-10-16 09:43:00,
2013-10-16 02:53:00,48.0,45.0,-100.00,North,352,0.0,8.0,89,0.00,,,0.00,0.000000,,2013-10-16 09:53:00,
2013-10-16 03:02:00,48.0,45.0,-100.00,North,352,0.0,8.0,89,0.00,,,0.00,0.000000,,2013-10-16 10:02:00,
2013-10-16 03:42:00,47.0,44.0,-100.00,NE,46,0.0,6.0,88,0.00,,,0.00,0.000000,,2013-10-16 10:42:00,
2013-10-16 03:53:00,47.0,44.0,-100.00,NE,46,0.0,6.0,88,0.00,,,0.00,0.000000,,2013-10-16 10:53:00,
2013-10-16 04:03:00,47.0,44.0,-100.00,NE,46,0.0,6.0,88,0.00,,,0.00,0.000000,,2013-10-16 11:03:00,
2013-10-16 04:42:00,45.0,43.0,-100.00,NE,35,1.0,6.0,92,0.00,,,0.00,0.000000,,2013-10-16 11:42:00,
2013-10-16 04:52:00,45.0,43.0,-100.00,NE,35,1.0,6.0,92,0.00,,,0.00,0.000000,,2013-10-16 11:52:00,
2013-10-16 05:01:00,45.0,43.0,-100.00,NE,35,1.0,6.0,92,0.00,,,0.00,0.000000,,2013-10-16 12:01:00,
2013-10-16 05:42:00,46.0,44.0,-100.00,NNE,26,1.0,7.0,92,0.00,,,0.00,0.000000,,2013-10-16 12:42:00,
2013-10-16 05:52:00,46.0,44.0,-100.00,NNE,26,1.0,7.0,92,0.00,,,0.00,0.000000,,2013-10-16 12:52:00,
2013-10-16 06:01:00,46.0,44.0,-100.00,NNE,26,1.0,7.0,92,0.00,,,0.00,0.000000,,2013-10-16 13:01:00,
2013-10-16 06:42:00,45.0,43.0,-100.00,ESE,119,1.0,6.0,93,0.00,,,0.00,0.000000,,2013-10-16 13:42:00,
2013-10-16 06:52:00,45.0,43.0,-100.00,ESE,119,1.0,6.0,93,0.00,,,0.00,0.000000,,2013-10-16 13:52:00,
2013-10-16 07:01:00,45.0,43.0,-100.00,ESE,119,1.0,6.0,93,0.00,,,0.00,0.000000,,2013-10-16 14:01:00,
2013-10-16 07:42:00,44.0,42.0,-100.00,East,86,0.0,7.0,91,0.00,,,0.00,0.000000,,2013-10-16 14:42:00,
2013-10-16 07:52:00,44.0,42.0,-100.00,East,86,0.0,7.0,91,0.00,,,0.00,0.000000,,2013-10-16 14:52:00,
2013-10-16 08:02:00,44.0,42.0,-100.00,East,86,0.0,7.0,91,0.00,,,0.00,0.000000,,2013-10-16 15:02:00,
2013-10-16 08:43:00,44.0,43.0,-100.00,NE,35,0.0,8.0,96,0.00,,,0.00,3.000000,,2013-10-16 15:43:00,
2013-10-16 08:53:00,44.0,43.0,-100.00,NE,35,0.0,8.0,96,0.00,,,0.00,3.000000,,2013-10-16 15:53:00,
2013-10-16 09:03:00,44.0,43.0,-100.00,NE,35,0.0,8.0,96,0.00,,,0.00,3.000000,,2013-10-16 16:03:00,
2013-10-16 09:42:00,50.0,47.0,-100.00,SE,133,0.0,7.0,91,0.00,,,0.00,101.000000,,2013-10-16 16:42:00,
2013-10-16 09:53:00,50.0,47.0,-100.00,SE,133,0.0,7.0,91,0.00,,,0.00,101.000000,,2013-10-16 16:53:00,
2013-10-16 10:02:00,50.0,47.0,-100.00,SE,133,0.0,7.0,91,0.00,,,0.00,101.000000,,2013-10-16 17:02:00,
2013-10-16 10:52:00,59.0,48.0,-100.00,NNW,338,0.0,6.0,66,0.00,,,0.00,303.000000,,2013-10-16 17:52:00,
2013-10-16 11:02:00,59.0,48.0,-100.00,NNW,338,0.0,6.0,66,0.00,,,0.00,303.000000,,2013-10-16 18:02:00,
2013-10-16 11:42:00,60.0,49.0,-100.00,North,5,0.0,5.0,68,0.00,,,0.00,451.000000,,2013-10-16 18:42:00,
2013-10-16 11:52:00,60.0,49.0,-100.00,North,5,0.0,5.0,68,0.00,,,0.00,451.000000,,2013-10-16 18:52:00,
2013-10-16 12:02:00,60.0,49.0,-100.00,North,5,0.0,5.0,68,0.00,,,0.00,451.000000,,2013-10-16 19:02:00,
2013-10-16 12:42:00,61.0,49.0,-100.00,NNW,334,5.0,7.0,65,0.00,,,0.00,555.000000,,2013-10-16 19:42:00,
2013-10-16 12:52:00,61.0,49.0,-100.00,NNW,334,5.0,7.0,65,0.00,,,0.00,555.000000,,2013-10-16 19:52:00,
2013-10-16 13:02:00,61.0,49.0,-100.00,NNW,334,5.0,7.0,65,0.00,,,0.00,555.000000,,2013-10-16 20:02:00,
2013-10-16 13:43:00,60.0,49.0,-100.00,NNW,331,7.0,11.0,66,0.00,,,0.00,608.000000,,2013-10-16 20:43:00,
2013-10-16 13:52:00,60.0,49.0,-100.00,NNW,331,7.0,11.0,66,0.00,,,0.00,608.000000,,2013-10-16 20:52:00,
2013-10-16 14:02:00,60.0,49.0,-100.00,NNW,331,7.0,11.0,66,0.00,,,0.00,608.000000,,2013-10-16 21:02:00,
2013-10-16 14:04:00,60.0,50.0,-100.00,NNE,31,8.0,12.0,70,0.00,,,0.00,609.000000,,2013-10-16 21:04:00,
2013-10-16 14:23:00,60.0,50.0,-100.00,NNE,31,8.0,12.0,70,0.00,,,0.00,609.000000,,2013-10-16 21:23:00,
2013-10-16 14:34:00,60.0,50.0,-100.00,NNE,31,8.0,12.0,70,0.00,,,0.00,609.000000,,2013-10-16 21:34:00,
2013-10-16 14:44:00,60.0,50.0,-100.00,NNE,31,8.0,12.0,70,0.00,,,0.00,609.000000,,2013-10-16 21:44:00,
2013-10-16 14:54:00,60.0,50.0,-100.00,NNE,31,8.0,12.0,70,0.00,,,0.00,609.000000,,2013-10-16 21:54:00,
2013-10-16 15:42:00,60.0,53.0,-100.00,NNW,346,7.0,15.0,78,0.00,,,0.00,516.000000,,2013-10-16 22:42:00,
2013-10-16 15:54:00,60.0,53.0,-100.00,NNW,346,7.0,15.0,78,0.00,,,0.00,516.000000,,2013-10-16 22:54:00,
2013-10-16 16:02:00,60.0,53.0,-100.00,NNW,346,7.0,15.0,78,0.00,,,0.00,516.000000,,2013-10-16 23:02:00,
2013-10-16 16:42:00,59.0,55.0,-100.00,North,357,9.0,15.0,86,0.00,,,0.00,227.000000,,2013-10-16 23:42:00,
2013-10-16 16:53:00,59.0,55.0,-100.00,North,357,9.0,15.0,86,0.00,,,0.00,227.000000,,2013-10-16 23:53:00,
2013-10-16 17:02:00,59.0,55.0,-100.00,North,357,9.0,15.0,86,0.00,,,0.00,227.000000,,2013-10-17 00:02:00,
2013-10-16 17:42:00,56.0,53.0,-100.00,North,351,9.0,16.0,90,0.00,,,0.00,276.000000,,2013-10-17 00:42:00,
2013-10-16 17:52:00,56.0,53.0,-100.00,North,351,9.0,16.0,90,0.00,,,0.00,276.000000,,2013-10-17 00:52:00,
2013-10-16 18:02:00,56.0,53.0,-100.00,North,351,9.0,16.0,90,0.00,,,0.00,276.000000,,2013-10-17 01:02:00,
2013-10-16 18:42:00,56.0,55.0,-100.00,North,1,5.0,15.0,97,0.00,,,-99.99,101.000000,,2013-10-17 01:42:00,
2013-10-16 18:52:00,56.0,55.0,-100.00,North,1,5.0,15.0,97,0.00,,,-99.99,101.000000,,2013-10-17 01:52:00,
2013-10-16 19:03:00,56.0,55.0,-100.00,North,1,5.0,15.0,97,0.00,,,-99.99,101.000000,,2013-10-17 02:03:00,
2013-10-16 19:53:00,52.0,52.0,-100.00,North,357,5.0,12.0,100,0.00,,,0.00,7.000000,,2013-10-17 02:53:00,
2013-10-16 20:02:00,52.0,52.0,-100.00,North,357,5.0,12.0,100,0.00,,,0.00,7.000000,,2013-10-17 03:02:00,
2013-10-16 20:04:00,51.0,51.0,-100.00,South,191,5.0,13.0,100,0.00,,,0.00,0.000000,,2013-10-17 03:04:00,
2013-10-16 20:44:00,51.0,51.0,-100.00,South,191,5.0,13.0,100,0.00,,,0.00,0.000000,,2013-10-17 03:44:00,
2013-10-16 20:54:00,51.0,51.0,-100.00,South,191,5.0,13.0,100,0.00,,,0.00,0.000000,,2013-10-17 03:54:00,
2013-10-16 21:04:00,48.0,48.0,-100.00,ESE,103,0.0,9.0,100,0.00,,,0.00,0.000000,,2013-10-17 04:04:00,
2013-10-16 21:43:00,48.0,48.0,-100.00,ESE,103,0.0,9.0,100,0.00,,,0.00,0.000000,,2013-10-17 04:43:00,
2013-10-16 21:54:00,48.0,48.0,-100.00,ESE,103,0.0,9.0,100,0.00,,,0.00,0.000000,,2013-10-17 04:54:00,
2013-10-16 22:42:00,47.0,47.0,-100.00,South,174,0.0,0.0,100,0.00,,,0.00,0.000000,,2013-10-17 05:42:00,
2013-10-16 22:52:00,47.0,47.0,-100.00,South,174,0.0,0.0,100,0.00,,,0.00,0.000000,,2013-10-17 05:52:00,
2013-10-16 23:02:00,47.0,47.0,-100.00,South,174,0.0,0.0,100,0.00,,,0.00,0.000000,,2013-10-17 06:02:00,
2013-10-16 23:42:00,46.0,46.0,-100.00,South,176,0.0,0.0,100,0.00,,,0.00,0.000000,,2013-10-17 06:42:00,
2013-10-16 23:52:00,46.0,46.0,-100.00,South,176,0.0,0.0,100,0.00,,,0.00,0.000000,,2013-10-17 06:52:00,